createdAt,value
2023-02-06T08:21:43.003Z,99825.42
2023-02-06T08:25:32.231Z,99821.67
2023-02-06T08:29:21.595Z,99818.97
2023-02-06T08:33:13.837Z,99820.05
2023-02-06T08:37:02.986Z,99814.52
2023-02-06T08:41:21.341Z,99824.23
2023-02-06T08:45:10.481Z,99830.20
2023-02-06T08:48:59.451Z,99824.52
2023-02-06T08:52:48.588Z,99818.02
2023-02-06T08:56:37.797Z,99817.39
2023-02-06T09:00:26.997Z,99826.49
2023-02-06T09:04:16.078Z,99827.24
2023-02-06T09:23:10.333Z,99838.95
2023-02-06T09:27:00.943Z,99841.58
2023-02-06T09:30:49.267Z,99843.11
2023-02-06T09:34:38.305Z,99843.28
2023-02-06T09:38:27.596Z,99839.27
2023-02-06T09:42:20.432Z,99839.97
2023-02-06T09:46:09.897Z,99840.16
2023-02-06T09:49:59.076Z,99835.13
2023-02-06T09:53:50.771Z,99836.61
2023-02-06T10:05:57.828Z,99837.70
2023-02-06T10:09:52.567Z,99835.52
2023-02-06T10:13:57.693Z,99845.38
2023-02-06T10:26:14.511Z,99841.85
2023-02-06T10:46:13.087Z,99849.14
2023-02-06T10:50:07.153Z,99839.93
2023-02-06T11:05:34.478Z,99824.27
2023-02-06T11:09:26.825Z,99831.55
2023-02-06T11:13:19.039Z,99834.16
2023-02-06T11:28:41.909Z,99817.65
2023-02-06T11:32:37.288Z,99825.33
2023-02-06T11:36:29.125Z,99822.45
2023-02-06T11:40:25.977Z,99827.17
2023-02-06T11:52:52.217Z,99823.40
2023-02-06T11:56:43.719Z,99823.15
2023-02-06T12:00:33.727Z,99821.02
2023-02-06T12:12:39.710Z,99821.96
2023-02-06T12:16:28.819Z,99821.69
2023-02-06T12:20:17.925Z,99816.54
2023-02-06T12:24:13.782Z,99811.29
2023-02-06T12:40:04.785Z,99814.13
2023-02-06T12:43:38.875Z,99816.63
2023-02-06T12:47:26.673Z,99814.14
2023-02-06T12:59:24.406Z,99816.55
2023-02-06T13:02:54.632Z,99816.38
2023-02-06T13:15:17.242Z,99824.98
2023-02-06T13:19:21.860Z,99817.27
2023-02-06T13:23:14.696Z,99812.61
2023-02-06T13:34:39.337Z,99820.00
2023-02-06T13:38:53.001Z,99824.16
2023-02-06T13:42:42.808Z,99827.65
2023-02-06T13:46:35.010Z,99834.30
2023-02-06T14:03:02.232Z,99854.82
2023-02-06T14:07:01.723Z,99857.57
2023-02-06T14:11:02.109Z,99857.98
2023-02-06T14:22:39.667Z,99854.19
2023-02-06T14:26:46.757Z,99852.18
2023-02-06T14:39:22.645Z,99859.63
2023-02-06T14:43:21.009Z,99858.86
2023-02-06T14:47:10.480Z,99858.65
2023-02-06T14:51:03.021Z,99859.03
2023-02-06T14:55:08.599Z,99857.38
2023-02-06T15:07:08.663Z,99852.50
2023-02-06T15:10:58.125Z,99862.52
2023-02-06T15:18:48.236Z,99864.05
2023-02-06T15:22:36.822Z,99865.28
2023-02-06T15:26:13.252Z,99869.66
2023-02-06T15:30:02.323Z,99866.05
2023-02-06T15:33:52.552Z,99869.59
2023-02-06T15:37:42.422Z,99872.77
2023-02-06T15:41:33.388Z,99872.05
2023-02-06T15:45:24.896Z,99868.48
2023-02-06T15:57:23.017Z,99872.20
2023-02-06T16:01:15.329Z,99886.13
2023-02-06T16:05:17.335Z,99886.42
2023-02-06T16:09:15.574Z,99892.85
2023-02-06T16:21:12.209Z,99903.55
2023-02-06T16:25:01.344Z,99907.27
2023-02-06T16:29:02.579Z,99903.77
2023-02-06T16:33:09.813Z,99904.39
2023-02-06T16:36:59.443Z,99892.33
2023-02-06T16:40:49.887Z,99896.30
2023-02-06T16:44:43.790Z,99902.51
2023-02-06T16:48:34.120Z,99912.41
2023-02-06T16:52:23.781Z,99915.73
2023-02-06T16:56:15.810Z,99923.16
2023-02-06T16:59:59.059Z,99918.24
2023-02-06T17:03:48.235Z,99915.78
2023-02-06T17:07:37.429Z,99920.02
2023-02-06T17:11:26.564Z,99924.52
2023-02-06T17:15:15.738Z,99924.81
2023-02-06T17:19:04.882Z,99935.98
2023-02-06T17:22:54.142Z,99941.02
2023-02-06T17:26:43.361Z,99936.63
2023-02-06T17:30:33.782Z,99934.54
2023-02-06T17:34:24.044Z,99933.63
2023-02-06T17:38:13.153Z,99935.44
2023-02-06T17:42:02.643Z,99939.17
2023-02-06T17:45:51.136Z,99937.43
2023-02-06T17:49:40.360Z,99939.34
2023-02-06T17:53:29.316Z,99941.55
2023-02-06T17:57:17.804Z,99937.95
2023-02-06T18:08:40.399Z,99944.71
2023-02-06T18:12:28.348Z,99951.36
2023-02-06T18:16:18.776Z,99963.23
2023-02-06T18:20:06.614Z,99968.16
2023-02-06T18:23:57.537Z,99966.62
2023-02-06T18:27:37.884Z,99967.20
2023-02-06T18:31:25.934Z,99969.98
2023-02-06T18:35:18.044Z,99963.65
2023-02-06T18:42:50.722Z,99971.50
2023-02-06T18:46:40.386Z,99964.24
2023-02-06T19:06:08.235Z,99999.01
2023-02-06T19:09:57.493Z,99992.73
2023-02-06T19:13:45.357Z,99991.23
2023-02-06T19:17:34.745Z,99982.41
2023-02-06T19:21:23.730Z,99972.77
2023-02-06T19:37:21.459Z,99989.65
2023-02-06T19:41:09.697Z,99991.84
2023-02-06T19:44:57.399Z,99984.14
2023-02-06T19:48:46.030Z,99986.15
2023-02-06T19:52:25.014Z,99989.02
2023-02-06T19:56:13.323Z,99995.77
2023-02-06T20:11:53.847Z,99999.10
2023-02-06T20:15:43.156Z,100000.44
2023-02-06T20:19:32.475Z,100002.17
2023-02-06T20:23:20.525Z,100000.88
2023-02-06T20:27:09.833Z,100000.41
2023-02-06T20:30:57.809Z,100004.70
2023-02-06T20:46:37.568Z,99998.88
2023-02-06T20:50:29.226Z,100003.84
2023-02-06T20:54:19.496Z,100007.95
2023-02-06T20:58:07.331Z,100017.61
2023-02-06T21:01:56.438Z,100017.85
2023-02-06T21:05:45.966Z,100032.65
2023-02-06T21:09:35.163Z,100040.48
2023-02-06T21:13:23.051Z,100044.00
2023-02-06T21:17:12.441Z,100048.89
2023-02-06T21:21:01.593Z,100049.83
2023-02-06T21:24:51.524Z,100052.23
2023-02-06T21:28:41.718Z,100062.39
2023-02-06T21:32:32.213Z,100072.95
2023-02-06T21:36:21.237Z,100068.60
2023-02-06T21:40:09.858Z,100070.00
2023-02-06T21:43:58.515Z,100071.13
2023-02-06T21:59:35.123Z,100091.29
2023-02-06T22:03:23.099Z,100102.73
2023-02-06T22:07:05.327Z,100108.17
2023-02-06T22:10:54.287Z,100114.50
2023-02-06T22:14:43.676Z,100119.86
2023-02-06T22:18:32.841Z,100135.88
2023-02-06T22:22:21.908Z,100140.63
2023-02-06T22:26:09.390Z,100147.70
2023-02-06T22:29:58.504Z,100149.84
2023-02-06T22:33:47.488Z,100151.30
2023-02-06T22:37:36.688Z,100160.83
2023-02-06T22:41:25.598Z,100168.16
2023-02-06T22:45:14.716Z,100166.30
2023-02-06T22:49:04.150Z,100164.46
2023-02-06T22:52:51.732Z,100177.41
2023-02-06T22:56:49.847Z,100166.52
2023-02-06T23:00:39.899Z,100161.02
2023-02-06T23:04:29.337Z,100165.60
2023-02-06T23:08:20.081Z,100170.65
2023-02-06T23:31:33.184Z,100150.38
2023-02-06T23:35:22.303Z,100139.25
2023-02-06T23:39:11.369Z,100131.30
2023-02-06T23:43:00.430Z,100128.77
2023-02-06T23:46:49.630Z,100135.77
2023-02-06T23:50:38.828Z,100132.48
2023-02-06T23:54:27.995Z,100127.48
2023-02-06T23:58:17.278Z,100108.50
